Tiempo atmosférico en la estación meteorológica de Padrón, A Coruña (100 m.)



Fecha
DESCASC
Temp. máxima en grados centígrados (hora)
DESCASC
Temp. mínima en grados centígrados (hora)
DESCASC
Temp. media en grados centígrados
DESCASC
Racha de viento máxima en m/sg (hora)
DESCASC
Velocidad máxima media en intervalos de 10 minutos(hora)
DESCASC
Precipitaciones diarias en mm
DESCASC
Precipitaciones de 00:00 a 06:00 en mm
DESCASC
Precipitaciones de 06:00 a 12:00 en mm
DESCASC
Precipitaciones de 12:00 a 18:00 en mm
DESCASC
Precipitaciones de 18:00 a 24:00 en mm
DESCASC
22-08-2019 33.5 (17:50) 12.5 (07:50) 23 8.89 (00:10) 5.28 (00:30) 0 0 0 0 0
21-08-2019 29.5 (16:30) 13.6 (08:10) 21.6 9.44 (00:20) 5.56 (15:40) 0 0 0 0 0
20-08-2019 26.8 (17:00) 13.9 (04:20) 20.3 13.06 (14:00) 7.78 (14:20) 0 0 0 0 0
19-08-2019 23.9 (16:20) 11.3 (06:50) 17.6 10.28 (16:40) 5.83 (16:50) 0 0 0 0 0
18-08-2019 23.7 (17:20) 13.3 (00:00) 18.5 9.17 (00:40) 3.61 (00:50) -- -- 0 0.1 0
17-08-2019 22.1 (15:50) 17.7 (00:00) 19.9 7.78 (16:30) 2.78 (16:30) -- -- -- -- --
16-08-2019 27.1 (16:30) 11.1 (00:00) 19.1 6.67 (18:30) 3.89 (08:00) -- -- -- -- --
15-08-2019 28.8 (16:50) 13.3 (00:00) 21 6.67 (12:10) 3.89 (11:30) -- -- -- -- --
14-08-2019 24.1 (16:50) 12.6 (00:00) 18.4 4.72 (09:10) 3.61 (09:20) -- -- -- -- --
13-08-2019 25.9 (16:30) 9.4 (00:00) 17.6 6.67 (10:40) 3.89 (10:30) -- -- -- -- --
12-08-2019 22.4 (15:10) 10.8 (00:00) 16.6 6.94 (13:30) 3.89 (09:50) -- -- -- -- --
11-08-2019 22.8 (16:10) 11.5 (00:00) 17.1 8.06 (14:10) 3.06 (15:20) -- -- -- -- --
10-08-2019 23.5 (17:30) 14.9 (00:00) 19.2 6.39 (14:30) 2.78 (14:40) -- -- -- -- --
09-08-2019 22.2 (14:50) 16.6 (00:00) 19.4 16.67 (15:40) 6.67 (10:50) -- -- -- -- --
08-08-2019 21.3 (15:50) 16.9 (00:00) 19.1 17.5 (22:00) 7.22 (22:10) -- -- -- -- --
07-08-2019 20.1 (17:20) 17.1 (00:00) 18.6 9.44 (21:40) 3.06 (21:40) -- -- -- -- --
06-08-2019 21.3 (13:00) 17.4 (00:00) 19.3 7.78 (14:00) 2.5 (14:50) -- -- -- -- --
05-08-2019 28.6 (15:50) 11.9 (00:00) 20.3 7.22 (18:20) 2.78 (18:20) -- -- -- -- --
04-08-2019 28.2 (16:40) 17.1 (00:00) 22.7 6.11 (16:50) 3.33 (01:00) 0 0 0 0 0
03-08-2019 29.2 (15:50) 13.9 (00:00) 21.6 6.39 (08:50) 4.44 (07:40) 0 0 0 0 0
02-08-2019 29.7 (15:50) 13.8 (00:00) 21.8 6.39 (00:10) 3.06 (10:00) 0 0 0 0 0
01-08-2019 29.1 (17:40) 13.3 (00:00) 21.2 9.17 (10:50) 5.28 (10:50) 0 0 0 0 0
31-07-2019 26.8 (16:00) 10 (00:00) 18.4 10.83 (14:00) 6.11 (13:50) 0 0 0 0 0
30-07-2019 24.7 (16:30) 10.1 (00:00) 17.4 6.94 (17:30) 2.78 (21:30) 0 0 0 0 0
29-07-2019 23 (17:20) 14.3 (00:00) 18.7 10 (17:40) 4.17 (17:40) 1 0.7 0.2 0.1 0
28-07-2019 25.4 (16:00) 10.8 (00:00) 18.1 9.72 (20:40) 3.61 (20:30) 0.1 0 0.1 0 0
27-07-2019 23.9 (17:30) 14.1 (00:00) 19 8.06 (18:40) 5.28 (12:20) 11 1.2 7.6 2.2 0
26-07-2019 24.1 (17:20) 15.2 (00:00) 19.7 7.78 (18:20) 3.06 (18:20) 0.5 0.4 0 0 0.1

Gráficas

Temp. máximas Temp. mínimas Temp. medias Precipitaciones Rachas de viento máximas Velocidades máximas media en intervalos de 10 minutos

Datos horarios

Fecha y hora oficial Temperatura (ºC) Velocidad del viento (km/h) Dirección del viento Racha (km/h) Dirección de racha Precipitación (mm) Presión (hPa) Tendencia (hPa) Humedad (%)
2019-08-24 23:00:00 17.1 8 Este 21 Este 0 -- -- 74
2019-08-24 22:00:00 18 4 Este 23 Sudeste 0 -- -- 70
2019-08-24 21:00:00 20.4 3 Sudeste 19 Nordeste 0 -- -- 61
2019-08-24 20:00:00 23.5 3 Oeste 10 Oeste 0 -- -- 56
2019-08-24 19:00:00 24.2 3 Oeste 13 Oeste 0 -- -- 53
2019-08-24 18:00:00 26.9 4 Oeste 14 Oeste 0 -- -- 47
2019-08-24 17:00:00 27.1 0 Calma 13 Oeste 0 -- -- 43
2019-08-24 16:00:00 27.1 3 Sudoeste 11 Sur 0 -- -- 44
2019-08-24 15:00:00 25.1 3 Sudeste 13 Este 0 -- -- 48
2019-08-24 14:00:00 22.8 5 Sudeste 14 Este 0 -- -- 53
2019-08-24 13:00:00 21.2 8 Este 18 Sudeste 0 -- -- 58
2019-08-24 12:00:00 19.7 9 Este 22 Este 0 -- -- 63
2019-08-24 11:00:00 18.7 11 Sudeste 19 Este 0 -- -- 68
2019-08-24 10:00:00 15.7 5 Este 12 Norte 0 -- -- 80
2019-08-24 09:00:00 15.1 5 Norte 12 Nordeste 0 -- -- 83
2019-08-24 08:00:00 15.4 0 Calma 11 Nordeste 0 -- -- 85
2019-08-24 07:00:00 15.9 0 Calma 8 Sudeste 0 -- -- 87
2019-08-24 06:00:00 16.2 0 Calma 8 Norte 0 -- -- 88
2019-08-24 05:00:00 16.4 0 Calma 6 Norte 0 -- -- 89
2019-08-24 04:00:00 16.5 0 Calma 6 Noroeste 0 -- -- 89
2019-08-24 03:00:00 16.8 0 Calma 6 Oeste 0 -- -- 90
2019-08-24 02:00:00 16.8 2 Oeste 9 Oeste 0 -- -- 91
2019-08-24 01:00:00 16.9 2 Oeste 7 Oeste 0 -- -- 90
2019-08-24 00:00:00 16.8 0 Calma 10 Oeste 0 -- -- 86
2019-08-23 23:00:00 17.9 4 Oeste 14 Oeste 0 -- -- 86
2019-08-23 22:00:00 18.6 6 Oeste 19 Oeste 0 -- -- 77
2019-08-23 21:00:00 20.4 6 Oeste 18 Oeste 0 -- -- 62
2019-08-23 20:00:00 23.1 5 Oeste 26 Oeste 0 -- -- 50
2019-08-23 19:00:00 26 6 Oeste 19 Oeste 0 -- -- 43
2019-08-23 18:00:00 28.7 9 Oeste 24 Noroeste 0 -- -- 38
2019-08-23 17:00:00 29.9 7 Oeste 24 Sudoeste 0 -- -- 36
2019-08-23 16:00:00 31.3 7 Oeste 19 Oeste 0 -- -- 35
2019-08-23 15:00:00 30.9 6 Oeste 19 Oeste 0 -- -- 38
2019-08-23 14:00:00 29.7 5 Oeste 13 Oeste 0 -- -- 38
2019-08-23 13:00:00 28.2 3 Oeste 11 Oeste 0 -- -- 47
2019-08-23 12:00:00 25.9 0 Calma 11 Sudeste 0 -- -- 52
2019-08-23 11:00:00 23.5 5 Este 19 Este 0 -- -- 58
2019-08-23 10:00:00 20.3 14 Este 22 Este 0 -- -- 73
2019-08-23 09:00:00 17.2 15 Nordeste 24 Este 0 -- -- 88
2019-08-23 08:00:00 15 18 Este 27 Este 0 -- -- 92
2019-08-23 07:00:00 15.7 20 Este 26 Este 0 -- -- 91
2019-08-23 06:00:00 16.7 17 Este 23 Este 0 -- -- 89
2019-08-23 05:00:00 17.1 13 Nordeste 21 Nordeste 0 -- -- 88
2019-08-23 04:00:00 17.8 8 Nordeste 17 Nordeste 0 -- -- 82
2019-08-23 03:00:00 18.4 8 Nordeste 20 Nordeste 0 -- -- 82
2019-08-23 02:00:00 19 12 Nordeste 22 Este 0 -- -- 79
2019-08-23 01:00:00 19.5 16 Nordeste 21 Nordeste 0 -- -- 73
2019-08-23 00:00:00 20.3 13 Nordeste 19 Este 0 -- -- 68
2019-08-22 23:00:00 21.2 7 Este 17 Nordeste 0 -- -- 61
2019-08-22 22:00:00 23.4 6 Nordeste 11 Nordeste 0 -- -- 49
2019-08-22 21:00:00 26.2 0 Calma 8 Oeste 0 -- -- 43
2019-08-22 20:00:00 29.6 3 Oeste 12 Oeste 0 -- -- 39
2019-08-22 19:00:00 30.9 5 Oeste 13 Oeste 0 -- -- 33
2019-08-22 18:00:00 33 5 Oeste 12 Oeste 0 -- -- 31
2019-08-22 17:00:00 33 3 Oeste 11 Oeste 0 -- -- 30
2019-08-22 16:00:00 32.1 3 Oeste 11 Oeste 0 -- -- 32
2019-08-22 15:00:00 30.5 3 Oeste 8 Oeste 0 -- -- 40
2019-08-22 14:00:00 28.7 3 Sudeste 14 Sudeste 0 -- -- 43
2019-08-22 13:00:00 26.5 5 Este 14 Este 0 -- -- 51
2019-08-22 12:00:00 24 8 Este 21 Este 0 -- -- 57
2019-08-22 11:00:00 21.1 12 Este 25 Este 0 -- -- 66
2019-08-22 10:00:00 17.7 15 Este 27 Este 0 -- -- 78
2019-08-22 09:00:00 14 8 Este 20 Nordeste 0 -- -- 94
2019-08-22 08:00:00 12.7 10 Este 20 Este 0 -- -- 95
2019-08-22 07:00:00 13 4 Este 12 Nordeste 0 -- -- 93
2019-08-22 06:00:00 13.7 5 Nordeste 15 Nordeste 0 -- -- 92
2019-08-22 05:00:00 14.3 4 Nordeste 14 Este 0 -- -- 91
2019-08-22 04:00:00 14.4 3 Este 14 Este 0 -- -- 89
2019-08-22 03:00:00 15.5 5 Este 18 Este 0 -- -- 86
2019-08-22 02:00:00 16.1 10 Este 27 Este 0 -- -- 82
2019-08-22 01:00:00 16.9 19 Este 32 Este 0 -- -- 77
2019-08-22 00:00:00 18.2 14 Este 34 Este 0 -- -- 70
2019-08-21 23:00:00 19.2 16 Este 34 Nordeste 0 -- -- 66
2019-08-21 22:00:00 20.2 18 Nordeste 33 Nordeste 0 -- -- 66
2019-08-21 21:00:00 21.8 16 Nordeste 31 Nordeste 0 -- -- 61
2019-08-21 20:00:00 24.3 10 Nordeste 26 Nordeste 0 -- -- 55
2019-08-21 19:00:00 26.4 11 Nordeste 24 Este 0 -- -- 46
2019-08-21 18:00:00 28.2 10 Este -- -- -- -- -- 42
2019-08-21 17:00:00 28.1 15 Este 30 Este 0 -- -- 39
2019-08-21 16:00:00 28.7 16 Este 31 Este 0 -- -- 41
2019-08-21 15:00:00 27.9 14 Este 27 Este 0 -- -- 42
2019-08-21 14:00:00 27.2 12 Este 28 Este 0 -- -- 44
2019-08-21 13:00:00 25.9 14 Este 26 Este 0 -- -- 49
2019-08-21 12:00:00 23.3 18 Este 27 Este 0 -- -- 53
2019-08-21 11:00:00 21.4 16 Este 26 Este 0 -- -- 60
2019-08-21 10:00:00 19 7 Este 17 Este 0 -- -- 70
2019-08-21 09:00:00 15.8 4 Nordeste 14 Este 0 -- -- 85
2019-08-21 08:00:00 13.7 4 Nordeste 12 Este 0 -- -- 88
2019-08-21 07:00:00 14.4 4 Este 15 Este 0 -- -- 86
2019-08-21 06:00:00 15 3 Este 16 Este 0 -- -- 82
2019-08-21 05:00:00 15.7 5 Este 30 Este 0 -- -- 81
2019-08-21 04:00:00 16 9 Este 26 Sudeste 0 -- -- 79
2019-08-21 03:00:00 16.1 11 Este 26 Este 0 -- -- 78
2019-08-21 02:00:00 16.4 16 Este 31 Este 0 -- -- 75
2019-08-21 01:00:00 16.8 17 Este 34 Este 0 -- -- 72
2019-08-21 00:00:00 17.5 18 Este 35 Este 0 -- -- 68
2019-08-20 23:00:00 18 15 Este 35 Nordeste 0 -- -- 64
2019-08-20 22:00:00 19 15 Nordeste 36 Norte 0 -- -- 60
2019-08-20 21:00:00 20.5 10 Nordeste 24 Nordeste 0 -- -- 57
2019-08-20 20:00:00 22.2 9 Nordeste 25 Nordeste 0 -- -- 51
2019-08-20 19:00:00 23.5 14 Nordeste 30 Nordeste 0 -- -- 47
2019-08-20 18:00:00 25.4 12 Nordeste 28 Este 0 -- -- 44
2019-08-20 17:00:00 26 12 Nordeste 28 Este 0 -- -- 42
2019-08-20 16:00:00 26 13 Este 32 Este 0 -- -- 44
2019-08-20 15:00:00 25.1 19 Este 43 Este 0 -- -- 46
2019-08-20 14:00:00 24 27 Este 47 Este 0 -- -- 49
2019-08-20 13:00:00 22.5 19 Este 40 Este 0 -- -- 54
2019-08-20 12:00:00 19.5 18 Este 42 Este 0 -- -- 61
2019-08-20 11:00:00 18.1 20 Este 35 Este 0 -- -- 68
2019-08-20 10:00:00 16.7 18 Este 40 Este 0 -- -- 72
2019-08-20 09:00:00 15.9 17 Este 33 Este 0 -- -- 78
2019-08-20 08:00:00 14.4 13 Este 26 Este 0 -- -- 82
2019-08-20 07:00:00 14.6 6 Este 23 Este 0 -- -- 81
2019-08-20 06:00:00 14.7 10 Este 30 Este 0 -- -- 82
2019-08-20 05:00:00 14.2 16 Este 33 Este 0 -- -- 82
2019-08-20 04:00:00 14.3 10 Este 38 Nordeste 0 -- -- 80
2019-08-20 03:00:00 14.2 6 Este 32 Nordeste 0 -- -- 80
2019-08-20 02:00:00 14.5 9 Este 26 Este 0 -- -- 79
2019-08-20 01:00:00 14.7 8 Este 24 Este 0 -- -- 76
2019-08-20 00:00:00 15 5 Nordeste 23 Este 0 -- -- 73
2019-08-19 23:00:00 15.7 7 Este 27 Nordeste 0 -- -- 70
2019-08-19 22:00:00 16.5 10 Nordeste 29 Nordeste 0 -- -- 67
2019-08-19 21:00:00 17.6 16 Nordeste 36 Nordeste 0 -- -- 63
2019-08-19 20:00:00 19 12 Nordeste 33 Nordeste 0 -- -- 57
2019-08-19 19:00:00 19.8 15 Nordeste 35 Nordeste 0 -- -- 52
2019-08-19 18:00:00 21.4 14 Nordeste 34 Este 0 -- -- 47
2019-08-19 17:00:00 22.9 14 Nordeste 37 Nordeste 0 -- -- 45
2019-08-19 16:00:00 23 11 Nordeste 32 Nordeste 0 -- -- 43
2019-08-19 15:00:00 21.7 17 Este 35 Este 0 -- -- 44
2019-08-19 14:00:00 20.7 17 Este 33 Sudeste 0 -- -- 45
2019-08-19 13:00:00 22.5 15 Nordeste 33 Este 0 -- -- 44
2019-08-19 12:00:00 21 17 Este 36 Este 0 -- -- 50
2019-08-19 11:00:00 18.3 13 Este 28 Este 0 -- -- 60
2019-08-19 10:00:00 14.9 4 Este 18 Este 0 -- -- 80
2019-08-19 09:00:00 12.2 9 Nordeste 15 Este 0 -- -- 91
2019-08-19 08:00:00 11.5 10 Este 19 Este 0 -- -- 91
2019-08-19 07:00:00 11.4 6 Nordeste 11 Nordeste 0 -- -- 91
2019-08-19 06:00:00 11.4 4 Nordeste 9 Nordeste 0 -- -- 90
2019-08-19 05:00:00 11.9 5 Nordeste 12 Este 0 -- -- 90
2019-08-19 04:00:00 11.8 7 Este 14 Este 0 -- -- 90
2019-08-19 03:00:00 11.9 6 Nordeste 9 Nordeste 0 -- -- 88
2019-08-19 02:00:00 12.2 7 Nordeste 11 Nordeste 0 -- -- 88
2019-08-19 01:00:00 12.5 7 Nordeste 12 Este 0 -- -- 83
2019-08-19 00:00:00 13.3 6 Este 14 Este 0 -- -- 80
2019-08-18 23:00:00 14.3 3 Nordeste 7 Nordeste 0 -- -- 73
2019-08-18 22:00:00 15.4 3 Nordeste 10 Este 0 -- -- 67
2019-08-18 21:00:00 17.1 5 Nordeste 19 Nordeste 0 -- -- 60
2019-08-18 20:00:00 18.8 6 Nordeste 19 Nordeste 0 -- -- 55
2019-08-18 19:00:00 20.4 9 Este 23 Nordeste 0 -- -- 52
2019-08-18 18:00:00 23 7 Este 22 Este 0 -- -- 47
2019-08-18 17:00:00 21.9 6 Este 20 Este 0 -- -- 47
2019-08-18 16:00:00 21.5 8 Este 17 Este 0 -- -- 49
2019-08-18 15:00:00 20.9 3 Norte 17 Este 0 -- -- 54
2019-08-18 14:00:00 20.7 9 Nordeste 20 Este 0.1 -- -- 58
2019-08-18 13:00:00 20.2 8 Este 16 Este 0 -- -- 72
2019-08-18 12:00:00 17.3 5 Este 15 Nordeste 0 -- -- 85
2019-08-18 11:00:00 16.6 6 Este 13 Este 0 -- -- 88
2019-08-18 10:00:00 16.2 6 Nordeste 19 Nordeste 0 -- -- 94
2019-08-18 09:00:00 16.4 5 Nordeste 11 Este 0 -- -- 94
2019-08-18 08:00:00 16.2 4 Este 10 Este 0 -- -- 94
2019-08-18 07:00:00 16.4 3 Este 15 Este 0 -- -- 93
2019-08-18 06:00:00 18 5 Noroeste 20 Oeste 0.6 -- -- 95
2019-08-18 05:00:00 18.8 5 Noroeste 27 Oeste 1.4 -- -- 95
2019-08-18 04:00:00 18.8 8 Oeste 29 Oeste 0.6 -- -- 94
2019-08-18 03:00:00 19.3 9 Oeste 23 Oeste 0 -- -- 93
2019-08-18 02:00:00 19.4 9 Oeste 27 Oeste 0 -- -- 93
2019-08-18 01:00:00 19.5 11 Oeste 33 Oeste 0 -- -- 93
2019-08-18 00:00:00 19.4 9 Oeste 27 Oeste 0 -- -- 92
2019-08-17 23:00:00 19.5 7 Oeste 23 Oeste 0 -- -- 92
2019-08-17 22:00:00 19.4 7 Oeste 27 Oeste 0 -- -- 93
2019-08-17 21:00:00 19.6 6 Oeste 23 Sudoeste 0 -- -- 94
2019-08-17 20:00:00 19.5 8 Oeste 23 Noroeste 0.1 -- -- 94
2019-08-17 19:00:00 19.6 10 Oeste 28 Oeste 0 -- -- 94
2019-08-17 18:00:00 19.9 8 Oeste 26 Oeste 0 -- -- 90
2019-08-17 17:00:00 21.2 9 Oeste 28 Oeste 0 -- -- 84
2019-08-17 16:00:00 21.4 9 Oeste 28 Oeste 0 -- -- 85
2019-08-17 15:00:00 20.7 8 Oeste 23 Sudoeste 0 -- -- 92
2019-08-17 14:00:00 19.8 4 Oeste 16 Oeste 0.4 -- -- 94
2019-08-17 13:00:00 19.6 5 Oeste 13 Sudoeste 0 -- -- 93
2019-08-17 12:00:00 19.2 6 Oeste 18 Oeste 0 -- -- 91
2019-08-17 11:00:00 19.5 5 Oeste 14 Oeste 0 -- -- 89
2019-08-17 10:00:00 18.8 4 Oeste 20 Oeste 0 -- -- 88
2019-08-17 09:00:00 18.3 6 Oeste 15 Oeste 0 -- -- 89
2019-08-17 08:00:00 18 6 Oeste 13 Oeste 0 -- -- 90
2019-08-17 07:00:00 17.9 3 Oeste 12 Oeste 0 -- -- 91
2019-08-17 06:00:00 17.9 4 Oeste 8 Oeste 0 -- -- 91
2019-08-17 05:00:00 17.9 2 Oeste 8 Oeste 0 -- -- 91
2019-08-17 04:00:00 18.2 2 Oeste 10 Oeste 0 -- -- 88
2019-08-17 03:00:00 18.3 3 Oeste 8 Oeste 0 -- -- 88
2019-08-17 02:00:00 18.2 2 Oeste 12 Oeste 0 -- -- 88
2019-08-17 01:00:00 18.1 3 Oeste 13 Oeste 0 -- -- 87
2019-08-17 00:00:00 18.6 3 Oeste 12 Oeste 0 -- -- 86
2019-08-16 23:00:00 18.7 4 Oeste 10 Oeste 0 -- -- 85
2019-08-16 22:00:00 19.3 2 Noroeste 13 Oeste 0 -- -- 80
2019-08-16 21:00:00 20.6 3 Oeste 15 Oeste 0 -- -- 75
2019-08-16 20:00:00 21.5 4 Oeste 18 Oeste 0 -- -- 68
2019-08-16 19:00:00 22.7 6 Oeste 24 Oeste 0 -- -- 61
2019-08-16 18:00:00 24.4 8 Oeste 23 Oeste 0 -- -- 56
2019-08-16 17:00:00 26.5 6 Oeste 21 Oeste 0 -- -- 50
2019-08-16 16:00:00 25.9 6 Oeste 20 Oeste 0 -- -- 50
2019-08-16 15:00:00 25.6 7 Oeste 18 Sudoeste 0 -- -- 50
2019-08-16 14:00:00 25.2 7 Oeste 17 Oeste 0 -- -- 52
2019-08-16 13:00:00 23.2 3 Oeste 10 Sudoeste 0 -- -- 54
2019-08-16 12:00:00 20.4 5 Sudeste 14 Este 0 -- -- 60
2019-08-16 11:00:00 18.2 9 Este 18 Nordeste 0 -- -- 72
2019-08-16 10:00:00 14.6 12 Este 19 Este 0 -- -- 88
2019-08-16 09:00:00 12.4 11 Nordeste 20 Nordeste 0 -- -- 94
2019-08-16 08:00:00 11.1 14 Este 20 Este 0 -- -- 94
2019-08-16 07:00:00 11.8 11 Nordeste 16 Nordeste 0 -- -- 93
2019-08-16 06:00:00 12 7 Nordeste 12 Nordeste 0 -- -- 92
2019-08-16 05:00:00 12 10 Nordeste 22 Este 0 -- -- 91
2019-08-16 04:00:00 13.1 7 Nordeste 14 Nordeste 0 -- -- 90
2019-08-16 03:00:00 13.5 6 Nordeste 12 Nordeste 0 -- -- 88
2019-08-16 02:00:00 14 4 Nordeste 13 Nordeste 0 -- -- 85
2019-08-16 01:00:00 14.7 5 Nordeste 14 Este 0 -- -- 81
2019-08-16 00:00:00 15.8 5 Este 17 Sudeste 0 -- -- 75
2019-08-15 23:00:00 17.1 9 Este 18 Este 0 -- -- 70
2019-08-15 22:00:00 18.9 4 Nordeste 11 Sudeste 0 -- -- 59
2019-08-15 21:00:00 21.3 2 Este 22 Nordeste 0 -- -- 50
2019-08-15 20:00:00 23.4 5 Norte 19 Nordeste 0 -- -- 46
2019-08-15 19:00:00 25.1 4 Nordeste 18 Este 0 -- -- 45
2019-08-15 18:00:00 27.3 4 Nordeste 18 Este 0 -- -- 44
2019-08-15 17:00:00 28.2 6 Nordeste 21 Este 0 -- -- 40
2019-08-15 16:00:00 28.2 9 Nordeste 24 Este 0 -- -- 41
2019-08-15 15:00:00 27 8 Nordeste 23 Nordeste 0 -- -- 41
2019-08-15 14:00:00 26.7 6 Nordeste 23 Este 0 -- -- 45
2019-08-15 13:00:00 24.6 12 Este 24 Este 0 -- -- 49
2019-08-15 12:00:00 22.9 12 Este 22 Este 0 -- -- 55
2019-08-15 11:00:00 21.1 13 Este 20 Este 0 -- -- 64
2019-08-15 10:00:00 18.9 9 Este 19 Este 0 -- -- 75
2019-08-15 09:00:00 15.4 5 Este 19 Este 0 -- -- 93
2019-08-15 08:00:00 13.4 6 Este 23 Este 0 -- -- 94
2019-08-15 07:00:00 13.5 10 Nordeste 15 Este 0 -- -- 93
2019-08-15 06:00:00 13.7 6 Nordeste 17 Nordeste 0 -- -- 93
2019-08-15 05:00:00 14 8 Este 15 Este 0 -- -- 93
2019-08-15 04:00:00 14.3 8 Nordeste 13 Este 0 -- -- 92
2019-08-15 03:00:00 14.5 7 Este 12 Nordeste 0 -- -- 91
2019-08-15 02:00:00 15 6 Nordeste 9 Este 0 -- -- 90
2019-08-15 01:00:00 16.1 5 Nordeste 14 Este 0 -- -- 86
2019-08-15 00:00:00 17 4 Este 10 Nordeste 0 -- -- 83
2019-08-14 23:00:00 17.8 4 Nordeste 10 Este 0 -- -- 77
2019-08-14 22:00:00 20 2 Sur 13 Norte 0 -- -- 70
2019-08-14 21:00:00 22 0 Calma 10 Oeste 0 -- -- 73
2019-08-14 20:00:00 23 3 Oeste 8 Oeste 0 -- -- 70
2019-08-14 19:00:00 23.4 5 Oeste 16 Noroeste 0 -- -- 68
2019-08-14 18:00:00 22.8 4 Sudoeste 15 Sudoeste 0 -- -- 69
2019-08-14 17:00:00 23.1 4 Oeste 12 Oeste 0 -- -- 66
2019-08-14 16:00:00 22.9 5 Sudoeste 14 Oeste 0 -- -- 66
2019-08-14 15:00:00 22.6 4 Oeste 12 Oeste 0 -- -- 66
2019-08-14 14:00:00 22.3 2 Oeste 11 Oeste 0 -- -- 66
2019-08-14 13:00:00 19.9 3 Oeste 10 Sudoeste 0 -- -- 68
2019-08-14 12:00:00 18.3 2 Oeste 5 Oeste 0 -- -- 72
2019-08-14 11:00:00 17.2 0 Calma 11 Este 0 -- -- 73
2019-08-14 10:00:00 16.2 9 Este 17 Este 0 -- -- 82
2019-08-14 09:00:00 14.1 11 Nordeste 17 Nordeste 0 -- -- 91
2019-08-14 08:00:00 13.2 10 Este 15 Nordeste 0 -- -- 92
2019-08-14 07:00:00 13 8 Nordeste 12 Nordeste 0 -- -- 92
2019-08-14 06:00:00 13 5 Este 10 Nordeste 0 -- -- 91
2019-08-14 05:00:00 13.2 9 Nordeste 15 Nordeste 0 -- -- 89
2019-08-14 04:00:00 13.3 6 Nordeste 11 Nordeste 0 -- -- 89
2019-08-14 03:00:00 13.9 4 Nordeste 7 Nordeste 0 -- -- 86
2019-08-14 02:00:00 14.2 2 Este 13 Este 0 -- -- 83
2019-08-14 01:00:00 15 6 Nordeste 12 Nordeste 0 -- -- 80
2019-08-14 00:00:00 15 6 Este 12 Este 0 -- -- 78
2019-08-13 23:00:00 16.8 6 Este 15 Este 0 -- -- 68
2019-08-13 22:00:00 17.8 4 Este 21 Norte 0 -- -- 60
2019-08-13 21:00:00 20.1 3 Norte 19 Norte 0 -- -- 56
2019-08-13 20:00:00 22.3 5 Norte 23 Norte 0 -- -- 50
2019-08-13 19:00:00 24.2 3 Noroeste 13 Nordeste 0 -- -- 40
2019-08-13 18:00:00 25.5 2 Sur 13 Norte 0 -- -- 35
2019-08-13 17:00:00 25.8 3 Oeste 15 Nordeste 0 -- -- 37
2019-08-13 16:00:00 24.7 0 Calma 12 Norte 0 -- -- 41
2019-08-13 15:00:00 24.2 0 Calma 15 Este 0 -- -- 44
2019-08-13 14:00:00 22.6 3 Sur 18 Este 0 -- -- 47
2019-08-13 13:00:00 21 8 Sudeste 19 Este 0 -- -- 53
2019-08-13 12:00:00 19.9 10 Este 21 Este 0 -- -- 58
2019-08-13 11:00:00 17.3 14 Este 24 Este 0 -- -- 66
2019-08-13 10:00:00 13.9 11 Este 20 Este 0 -- -- 80
2019-08-13 09:00:00 10.7 13 Este 19 Este 0 -- -- 93
2019-08-13 08:00:00 9.4 13 Este 20 Este 0 -- -- 93
2019-08-13 07:00:00 9.8 9 Este 15 Este 0 -- -- 92
2019-08-13 06:00:00 10.6 10 Este 17 Nordeste 0 -- -- 92
2019-08-13 05:00:00 10.9 7 Este 12 Nordeste 0 -- -- 89
2019-08-13 04:00:00 11.3 7 Este 13 Este 0 -- -- 88
2019-08-13 03:00:00 11.9 5 Este 10 Nordeste 0 -- -- 85
2019-08-13 02:00:00 12.9 9 Este 19 Sudeste 0 -- -- 82
2019-08-13 01:00:00 13 4 Este 13 Este 0 -- -- 80
2019-08-13 00:00:00 13.7 6 Este 17 Este 0 -- -- 76
2019-08-12 23:00:00 14.7 4 Nordeste 13 Este 0 -- -- 72
2019-08-12 22:00:00 16.1 10 Este 19 Este 0 -- -- 64
2019-08-12 21:00:00 17.5 4 Este 23 Este 0 -- -- 56
2019-08-12 20:00:00 19.6 9 Este 23 Este 0 -- -- 50
2019-08-12 19:00:00 20.7 8 Nordeste 20 Este 0 -- -- 45
2019-08-12 18:00:00 21.5 7 Este 23 Este 0 -- -- 44
2019-08-12 17:00:00 21.2 5 Este 21 Este 0 -- -- 48
2019-08-12 16:00:00 21.1 14 Este 22 Este 0 -- -- 48
2019-08-12 15:00:00 21.4 6 Nordeste 18 Este 0 -- -- 50
2019-08-12 14:00:00 20.3 9 Este 25 Este 0 -- -- 52
2019-08-12 13:00:00 18.8 11 Sudeste 21 Este 0 -- -- 59
2019-08-12 12:00:00 17 13 Este 20 Este 0 -- -- 80
2019-08-12 11:00:00 13.5 13 Este 22 Este 0 -- -- 95
2019-08-12 10:00:00 11.9 12 Este 21 Nordeste 0 -- -- 95
2019-08-12 09:00:00 11.1 13 Este 19 Nordeste 0.1 -- -- 95
2019-08-12 08:00:00 10.9 10 Nordeste 19 Nordeste 0 -- -- 95
2019-08-12 07:00:00 11 9 Este 17 Este 0 -- -- 95
2019-08-12 06:00:00 11.2 9 Este 17 Este 0.1 -- -- 95
2019-08-12 05:00:00 11.3 7 Este 15 Este 0 -- -- 94
2019-08-12 04:00:00 11.4 10 Nordeste 14 Nordeste 0 -- -- 94
2019-08-12 03:00:00 11.5 10 Nordeste 13 Nordeste 0 -- -- 94
2019-08-12 02:00:00 12.1 8 Nordeste 13 Nordeste 0 -- -- 92
2019-08-12 01:00:00 12.8 6 Nordeste 10 Nordeste 0 -- -- 89
2019-08-12 00:00:00 13.7 3 Este 8 Nordeste 0 -- -- 86
2019-08-11 23:00:00 14.9 4 Nordeste 9 Norte 0 -- -- 81
2019-08-11 22:00:00 15.9 0 Calma 4 Norte 0 -- -- 80
2019-08-11 21:00:00 17.2 2 Nordeste 10 Norte 0.2 -- -- 79
2019-08-11 20:00:00 18.4 2 Norte 18 Oeste 0 -- -- 61
2019-08-11 19:00:00 20.5 8 Oeste 26 Sudoeste 0 -- -- 54
2019-08-11 18:00:00 21.4 8 Oeste 24 Noroeste 0 -- -- 50
2019-08-11 17:00:00 21.5 8 Oeste 22 Oeste 0 -- -- 52
2019-08-11 16:00:00 21.9 8 Oeste 27 Oeste 0 -- -- 50
2019-08-11 15:00:00 19.6 9 Oeste 29 Oeste 0 -- -- 66
2019-08-11 14:00:00 18.1 9 Oeste 22 Oeste 0 -- -- 77
2019-08-11 13:00:00 17.8 4 Oeste 23 Oeste 1.9 -- -- 89
2019-08-11 12:00:00 18.2 2 Oeste 10 Oeste 0 -- -- 80
2019-08-11 11:00:00 16.4 0 Calma 14 Este 0 -- -- 90
2019-08-11 10:00:00 12.9 9 Este 14 Este 0 -- -- 95
2019-08-11 09:00:00 12.2 6 Este 14 Nordeste 0 -- -- 95
2019-08-11 08:00:00 11.6 6 Nordeste 15 Nordeste 0 -- -- 95
2019-08-11 07:00:00 11.7 7 Nordeste 11 Este 0 -- -- 94
2019-08-11 06:00:00 11.7 9 Nordeste 15 Nordeste 0 -- -- 94
2019-08-11 05:00:00 12 8 Nordeste 12 Este 0 -- -- 92
2019-08-11 04:00:00 12.8 5 Nordeste 7 Nordeste 0 -- -- 91
2019-08-11 03:00:00 13.5 0 Calma 8 Nordeste 0 -- -- 90
2019-08-11 02:00:00 13.9 5 Nordeste 9 Este 0 -- -- 88
2019-08-11 01:00:00 14.5 6 Nordeste 9 Nordeste 0 -- -- 86
2019-08-11 00:00:00 14.9 4 Este 6 Norte 0 -- -- 84
2019-08-10 23:00:00 15.9 0 Calma 3 Sudoeste 0 -- -- 76
2019-08-10 22:00:00 16.6 0 Calma 8 Norte 0 -- -- 73
2019-08-10 21:00:00 17.8 0 Calma 5 Norte 0 -- -- 70
2019-08-10 20:00:00 18.7 0 Calma 16 Noroeste 0 -- -- 61
2019-08-10 19:00:00 20.1 4 Oeste 22 Oeste 0 -- -- 54
2019-08-10 18:00:00 22.3 8 Oeste 21 Oeste 0 -- -- 52
2019-08-10 17:00:00 22.7 8 Oeste 21 Oeste 0 -- -- 53
2019-08-10 16:00:00 22.8 8 Oeste 23 Sudoeste 0 -- -- 55
2019-08-10 15:00:00 22.2 8 Oeste 23 Oeste 0 -- -- 54
2019-08-10 14:00:00 21.9 9 Oeste 23 Oeste 0 -- -- 57
2019-08-10 13:00:00 20.7 5 Oeste 14 Sur 0 -- -- 67
2019-08-10 12:00:00 19.2 3 Oeste 15 Oeste 0 -- -- 75
2019-08-10 11:00:00 17.5 0 Calma 6 Oeste 0 -- -- 94
2019-08-10 10:00:00 17.4 0 Calma 11 Oeste 0 -- -- 94
2019-08-10 09:00:00 16.3 2 Oeste 6 Noroeste 0 -- -- 94
2019-08-10 08:00:00 16.1 0 Calma 8 Oeste 0.5 -- -- 94
2019-08-10 07:00:00 16.2 3 Oeste 9 Oeste 0 -- -- 94
2019-08-10 06:00:00 16.1 3 Oeste 9 Oeste 0 -- -- 94
2019-08-10 05:00:00 16.3 3 Oeste 8 Oeste 0.1 -- -- 94
2019-08-10 04:00:00 15.7 3 Oeste 18 Oeste 4.1 -- -- 93
2019-08-10 03:00:00 16.6 3 Oeste 10 Oeste 0 -- -- 92
2019-08-10 02:00:00 16.6 4 Oeste 12 Oeste 0 -- -- 91
2019-08-10 01:00:00 16.6 6 Oeste 16 Oeste 0 -- -- 89
2019-08-10 00:00:00 16.7 5 Oeste 17 Oeste 0 -- -- 89
2019-08-09 23:00:00 17 8 Oeste 28 Oeste 0 -- -- 87
2019-08-09 22:00:00 17.4 12 Oeste 32 Oeste 0 -- -- 83
2019-08-09 21:00:00 18.2 12 Oeste 38 Oeste 0 -- -- 80
2019-08-09 20:00:00 19 14 Oeste 35 Oeste 0 -- -- 75
2019-08-09 19:00:00 19.4 13 Oeste 41 Oeste 0 -- -- 74
2019-08-09 18:00:00 20.5 16 Oeste 46 Oeste 0 -- -- 73
2019-08-09 17:00:00 19.8 17 Oeste 50 Noroeste 0 -- -- 75
2019-08-09 16:00:00 20.3 19 Oeste 60 Oeste 0 -- -- 73
2019-08-09 15:00:00 21.3 23 Oeste 57 Oeste 0 -- -- 68
2019-08-09 14:00:00 20.8 20 Oeste 54 Oeste 0 -- -- 71
2019-08-09 13:00:00 21 23 Oeste 55 Oeste 0.2 -- -- 73
2019-08-09 12:00:00 20.3 21 Oeste 57 Oeste 0 -- -- 76
2019-08-09 11:00:00 19.3 19 Oeste 52 Oeste 0 -- -- 80
2019-08-09 10:00:00 18.9 19 Oeste 53 Oeste 0 -- -- 84
2019-08-09 09:00:00 18.6 21 Oeste 53 Oeste 0 -- -- 86
2019-08-09 08:00:00 18.1 19 Oeste 49 Oeste 0 -- -- 88
2019-08-09 07:00:00 17.8 17 Oeste 43 Oeste 0 -- -- 90
2019-08-09 06:00:00 17.6 18 Oeste 53 Oeste 0 -- -- 91
2019-08-09 05:00:00 17.8 16 Oeste 49 Oeste 0 -- -- 91
2019-08-09 04:00:00 17.6 16 Oeste 50 Oeste 0 -- -- 94
2019-08-09 03:00:00 17.4 18 Oeste 41 Sudoeste 0 -- -- 94
2019-08-09 02:00:00 17.7 17 Oeste 43 Oeste 0 -- -- 95
2019-08-09 01:00:00 17.3 12 Oeste 31 Sudoeste 0 -- -- 94
2019-08-09 00:00:00 16.9 14 Oeste 42 Oeste 0 -- -- 94
2019-08-08 23:00:00 17.8 18 Oeste 58 Oeste 0 -- -- 94
2019-08-08 22:00:00 19.8 23 Oeste 63 Oeste 0 -- -- 94
2019-08-08 21:00:00 20.2 14 Oeste 51 Sudoeste 0 -- -- 94
2019-08-08 20:00:00 20.3 17 Oeste 48 Oeste 0 -- -- 94
2019-08-08 19:00:00 20 16 Oeste 50 Oeste 0 -- -- 94
2019-08-08 18:00:00 20.1 15 Oeste 40 Oeste 0 -- -- 94
2019-08-08 17:00:00 20.7 14 Oeste 41 Oeste 0 -- -- 91
2019-08-08 16:00:00 21.1 18 Oeste 44 Oeste 0 -- -- 92
2019-08-08 15:00:00 20.7 13 Oeste 34 Sudoeste 0 -- -- 94
2019-08-08 14:00:00 20.7 11 Oeste 42 Oeste 0 -- -- 94
2019-08-08 13:00:00 20.7 10 Oeste 27 Noroeste 0 -- -- 94
2019-08-08 12:00:00 20.3 8 Oeste 27 Oeste 0 -- -- 94
2019-08-08 11:00:00 20.2 9 Oeste 26 Sudoeste 0 -- -- 94
2019-08-08 10:00:00 19.7 7 Oeste 21 Oeste 0 -- -- 94
2019-08-08 09:00:00 19.4 5 Oeste 19 Oeste 0 -- -- 94
2019-08-08 08:00:00 19 6 Oeste 22 Oeste 0 -- -- 94
2019-08-08 07:00:00 18.9 6 Oeste 19 Oeste 0 -- -- 94
2019-08-08 06:00:00 19 3 Oeste 17 Sudoeste 0 -- -- 94
2019-08-08 05:00:00 18.7 6 Sudoeste 23 Sudoeste 0 -- -- 94
2019-08-08 04:00:00 18.3 5 Oeste 19 Sur 0 -- -- 94
2019-08-08 03:00:00 18.2 7 Oeste 23 Sudoeste 0 -- -- 94
2019-08-08 02:00:00 17.8 6 Oeste 20 Oeste 0 -- -- 94
2019-08-08 01:00:00 17.5 6 Oeste 21 Oeste 0 -- -- 94
2019-08-08 00:00:00 17.3 5 Oeste 22 Oeste 0 -- -- 94
2019-08-07 23:00:00 17.2 8 Oeste 26 Oeste 0 -- -- 94
2019-08-07 22:00:00 17.5 11 Oeste 34 Oeste 0 -- -- 94
2019-08-07 21:00:00 17.3 6 Oeste 23 Oeste 0 -- -- 94
2019-08-07 20:00:00 18.4 9 Oeste 23 Noroeste 0 -- -- 95
2019-08-07 19:00:00 19.3 9 Oeste 27 Oeste 0 -- -- 94
2019-08-07 18:00:00 19.4 8 Oeste 22 Oeste 0 -- -- 94
2019-08-07 17:00:00 19.4 10 Oeste 26 Oeste 0 -- -- 94
2019-08-07 16:00:00 19.3 10 Oeste 28 Oeste 0.6 -- -- 94
2019-08-07 15:00:00 19.6 6 Oeste 23 Sudoeste 1.5 -- -- 94
2019-08-07 14:00:00 19 10 Oeste 26 Oeste 1.5 -- -- 94
2019-08-07 13:00:00 19.4 8 Oeste 19 Oeste 0.2 -- -- 94
2019-08-07 12:00:00 19.6 2 Oeste 13 Sudoeste 0.4 -- -- 94
2019-08-07 11:00:00 18.9 2 Oeste 8 Oeste 1.8 -- -- 94
2019-08-07 10:00:00 18.2 0 Calma 9 Este 0.6 -- -- 94
2019-08-07 09:00:00 17.6 3 Nordeste 13 Nordeste 0.2 -- -- 94
2019-08-07 08:00:00 17.4 6 Nordeste 10 Nordeste 0 -- -- 94
2019-08-07 07:00:00 17.3 5 Nordeste 8 Nordeste 0 -- -- 93
2019-08-07 06:00:00 17.4 3 Nordeste 6 Este 0 -- -- 93
2019-08-07 05:00:00 18.1 0 Calma 5 Oeste 0 -- -- 93
2019-08-07 04:00:00 18.1 0 Calma 6 Oeste 0 -- -- 93
2019-08-07 03:00:00 18.1 0 Calma 8 Oeste 0 -- -- 93
2019-08-07 02:00:00 18.1 0 Calma 8 Oeste 0 -- -- 93
2019-08-07 01:00:00 18.2 3 Oeste 8 Oeste 0 -- -- 93
2019-08-07 00:00:00 18.1 0 Calma 4 Oeste 0 -- -- 93
2019-08-06 23:00:00 18.3 0 Calma 5 Oeste 0 -- -- 92
2019-08-06 22:00:00 18.8 0 Calma 7 Oeste 0 -- -- 92
2019-08-06 21:00:00 19.2 4 Oeste 10 Oeste 0 -- -- 92
2019-08-06 20:00:00 19.4 3 Oeste 7 Oeste 0 -- -- 92
2019-08-06 19:00:00 19.5 0 Calma 5 Oeste 0 -- -- 92
2019-08-06 18:00:00 19.5 0 Calma 10 Oeste 0 -- -- 93
2019-08-06 17:00:00 19.1 3 Oeste 14 Sudoeste 0.2 -- -- 93
2019-08-06 16:00:00 18.6 5 Oeste 21 Oeste 0 -- -- 93
2019-08-06 15:00:00 20 6 Oeste 23 Oeste 0 -- -- 83
2019-08-06 14:00:00 20.4 8 Oeste 28 Oeste 0 -- -- 81
2019-08-06 13:00:00 21.2 5 Oeste 15 Oeste 0 -- -- 81
2019-08-06 12:00:00 19.9 4 Oeste 11 Oeste 0 -- -- 84
2019-08-06 11:00:00 19.2 3 Oeste 9 Noroeste 0 -- -- 86
2019-08-06 10:00:00 19.5 3 Oeste 11 Oeste 0 -- -- 86
2019-08-06 09:00:00 18.4 2 Oeste 7 Oeste 0 -- -- 91
2019-08-06 08:00:00 17.9 0 Calma 6 Oeste 0 -- -- 91
2019-08-06 07:00:00 18 0 Calma 5 Oeste 0 -- -- 92
2019-08-06 06:00:00 17.5 2 Noroeste 6 Oeste 0 -- -- 92
2019-08-06 05:00:00 18 0 Calma 4 Oeste 0 -- -- 91
2019-08-06 04:00:00 18.1 0 Calma 8 Oeste 0 -- -- 91
2019-08-06 03:00:00 18.3 3 Oeste 10 Oeste 0 -- -- 92
2019-08-06 02:00:00 18.7 3 Oeste 12 Oeste 0 -- -- 90
2019-08-06 01:00:00 19 0 Calma 6 Oeste 0 -- -- 88
2019-08-06 00:00:00 19.2 0 Calma 12 Oeste 0 -- -- 86
2019-08-05 23:00:00 19.5 3 Oeste 11 Oeste 0 -- -- 83
2019-08-05 22:00:00 19.8 3 Oeste 14 Oeste 0 -- -- 83
2019-08-05 21:00:00 20.9 4 Oeste 20 Noroeste 0 -- -- 78
2019-08-05 20:00:00 21.6 5 Oeste 20 Oeste 0 -- -- 73
2019-08-05 19:00:00 23.9 8 Oeste 26 Oeste 0 -- -- 63
2019-08-05 18:00:00 25.9 9 Oeste 23 Oeste 0 -- -- 52
2019-08-05 17:00:00 27.3 7 Oeste 25 Oeste 0 -- -- 48
2019-08-05 16:00:00 27.7 9 Oeste 21 Oeste 0 -- -- 45
2019-08-05 15:00:00 26.8 6 Oeste 18 Oeste 0 -- -- 47
2019-08-05 14:00:00 25.7 7 Oeste 17 Oeste 0 -- -- 49
2019-08-05 13:00:00 24.8 5 Oeste 14 Oeste 0 -- -- 51
2019-08-05 12:00:00 23 3 Oeste 9 Sudoeste 0 -- -- 55
2019-08-05 11:00:00 20.5 2 Oeste 14 Sudeste 0 -- -- 64
2019-08-05 10:00:00 18.4 6 Este 14 Este 0 -- -- 73
2019-08-05 09:00:00 14.2 7 Este 12 Este 0 -- -- 90
2019-08-05 08:00:00 12.4 6 Nordeste 11 Nordeste 0 -- -- 94
2019-08-05 07:00:00 12.5 4 Nordeste 12 Este 0 -- -- 93
2019-08-05 06:00:00 12.7 4 Este 7 Nordeste 0 -- -- 92
2019-08-05 05:00:00 13 0 Calma 5 Este 0 -- -- 91
2019-08-05 04:00:00 14.1 0 Calma 3 Sur 0 -- -- 90
2019-08-05 03:00:00 14.2 0 Calma 3 Nordeste 0 -- -- 87
2019-08-05 02:00:00 14.9 0 Calma 4 Sudoeste 0 -- -- 83
2019-08-05 01:00:00 15.8 3 Nordeste 6 Nordeste 0 -- -- 78
2019-08-05 00:00:00 17.1 0 Calma 4 Norte 0 -- -- 72
2019-08-04 23:00:00 17.8 0 Calma 9 Sudoeste 0 -- -- 66
2019-08-04 22:00:00 19.5 4 Sudoeste 10 Sudoeste 0 -- -- 60
2019-08-04 21:00:00 21.9 3 Oeste 16 Oeste 0 -- -- 55
2019-08-04 20:00:00 23.5 5 Oeste 18 Oeste 0 -- -- 50
2019-08-04 19:00:00 24.9 5 Oeste 18 Oeste 0 -- -- 48
2019-08-04 18:00:00 26.6 8 Oeste 22 Oeste 0 -- -- 45
2019-08-04 17:00:00 27.2 8 Oeste 22 Sudoeste 0 -- -- 44
2019-08-04 16:00:00 26.6 8 Oeste 21 Oeste 0 -- -- 45
2019-08-04 15:00:00 27.7 6 Oeste 17 Oeste 0 -- -- 46
2019-08-04 14:00:00 27.2 6 Oeste 15 Sudoeste 0 -- -- 47
2019-08-04 13:00:00 25.5 5 Sudoeste 11 Sudoeste 0 -- -- 49
2019-08-04 12:00:00 22.7 3 Sudeste 11 Sudeste 0 -- -- 63
2019-08-04 11:00:00 22 2 Sudeste 10 Este 0 -- -- 69
2019-08-04 10:00:00 21.3 5 Este 9 Sudeste 0 -- -- 73
2019-08-04 09:00:00 19.3 0 Calma 4 Este 0 -- -- 83
2019-08-04 08:00:00 18 0 Calma 3 Sudeste 0 -- -- 84
2019-08-04 07:00:00 18.1 0 Calma 9 Este 0 -- -- 83
2019-08-04 06:00:00 17.9 5 Nordeste 10 Este 0 -- -- 82
2019-08-04 05:00:00 18.1 4 Este 8 Este 0 -- -- 82
2019-08-04 04:00:00 17.8 6 Nordeste 10 Este 0 -- -- 82
2019-08-04 03:00:00 18.5 5 Este 9 Este 0 -- -- 79
2019-08-04 02:00:00 18.8 6 Este 17 Este 0 -- -- 75
2019-08-04 01:00:00 19.5 12 Este 21 Este 0 -- -- 70
2019-08-04 00:00:00 20.6 6 Nordeste 18 Nordeste 0 -- -- 69
2019-08-03 23:00:00 21.2 4 Nordeste 12 Nordeste 0 -- -- 68
2019-08-03 22:00:00 22.4 3 Este 9 Este 0 -- -- 66
2019-08-03 21:00:00 23.6 0 Calma 8 Oeste 0 -- -- 60
2019-08-03 20:00:00 24.3 3 Oeste 15 Oeste 0 -- -- 55
2019-08-03 19:00:00 27 5 Oeste 17 Oeste 0 -- -- 49
2019-08-03 18:00:00 28.8 6 Oeste 17 Oeste 0 -- -- 45
2019-08-03 17:00:00 28.9 5 Oeste 20 Oeste 0 -- -- 44
2019-08-03 16:00:00 28.9 7 Oeste 17 Oeste 0 -- -- 43
2019-08-03 15:00:00 28.5 6 Oeste 14 Oeste 0 -- -- 44
2019-08-03 14:00:00 26.1 5 Sudoeste 12 Sur 0 -- -- 46
2019-08-03 13:00:00 24.3 3 Oeste 15 Este 0 -- -- 58
2019-08-03 12:00:00 20 9 Este 19 Este 0 -- -- 72
2019-08-03 11:00:00 16.6 9 Este 22 Este 0 -- -- 91
2019-08-03 10:00:00 15.2 12 Este 20 Este 0 -- -- 94
2019-08-03 09:00:00 14.4 15 Este 23 Este 0 -- -- 94
2019-08-03 08:00:00 14.2 12 Este 21 Este 0 -- -- 94
2019-08-03 07:00:00 14.1 10 Este 19 Este 0 -- -- 94
2019-08-03 06:00:00 14.1 12 Este 20 Este 0 -- -- 94
2019-08-03 05:00:00 13.9 7 Este 9 Este 0 -- -- 92
2019-08-03 04:00:00 15.1 3 Nordeste 14 Nordeste 0 -- -- 92
2019-08-03 03:00:00 15.4 3 Nordeste 8 Nordeste 0 -- -- 89
2019-08-03 02:00:00 15.9 3 Nordeste 6 Nordeste 0 -- -- 88
2019-08-03 01:00:00 16.3 2 Nordeste 7 Este 0 -- -- 86
2019-08-03 00:00:00 17.7 3 Nordeste 9 Sudeste 0 -- -- 78
2019-08-02 23:00:00 19.2 5 Nordeste 13 Este 0 -- -- 70
2019-08-02 22:00:00 21.3 3 Nordeste 13 Nordeste 0 -- -- 63
2019-08-02 21:00:00 23.4 0 Calma 11 Oeste 0 -- -- 55
2019-08-02 20:00:00 24.4 4 Oeste 17 Oeste 0 -- -- 52
2019-08-02 19:00:00 25.6 5 Oeste 14 Oeste 0 -- -- 49
2019-08-02 18:00:00 26.6 5 Oeste 21 Oeste 0 -- -- 46
2019-08-02 17:00:00 28.1 6 Oeste 16 Oeste 0 -- -- 44
2019-08-02 16:00:00 28.2 6 Oeste 16 Oeste 0 -- -- 42
2019-08-02 15:00:00 28.3 5 Oeste 15 Sur 0 -- -- 44
2019-08-02 14:00:00 25.7 4 Oeste 15 Oeste 0 -- -- 49
2019-08-02 13:00:00 24.6 0 Calma 17 Sudeste 0 -- -- 54
2019-08-02 12:00:00 22.6 10 Sudeste 17 Este 0 -- -- 58
2019-08-02 11:00:00 21.4 9 Este 18 Este 0 -- -- 66
2019-08-02 10:00:00 17.5 11 Este 14 Este 0 -- -- 83
2019-08-02 09:00:00 15.8 9 Nordeste 13 Nordeste 0 -- -- 93
2019-08-02 08:00:00 15 6 Nordeste 10 Este 0 -- -- 93
2019-08-02 07:00:00 14.5 2 Nordeste 11 Nordeste 0 -- -- 93
2019-08-02 06:00:00 14.2 3 Nordeste 9 Este 0 -- -- 93
2019-08-02 05:00:00 14 2 Este 9 Nordeste 0 -- -- 92
2019-08-02 04:00:00 14.6 2 Este 11 Este 0 -- -- 90
2019-08-02 03:00:00 15.6 3 Nordeste 11 Este 0 -- -- 88
2019-08-02 02:00:00 16.4 5 Este 18 Este 0 -- -- 83
2019-08-02 01:00:00 17.1 5 Este 23 Este 0 -- -- 81
2019-08-02 00:00:00 17.9 0 Calma 21 Nordeste 0 -- -- 79
2019-08-01 23:00:00 18.1 0 Calma 9 Sudeste 0 -- -- 75
2019-08-01 22:00:00 19.5 0 Calma 15 Nordeste 0 -- -- 68
2019-08-01 21:00:00 21.5 6 Nordeste 29 Nordeste 0 -- -- 60
2019-08-01 20:00:00 23.9 8 Nordeste 27 Norte 0 -- -- 53
2019-08-01 19:00:00 25.9 8 Nordeste 26 Nordeste 0 -- -- 48
2019-08-01 18:00:00 27.7 7 Nordeste 20 Norte 0 -- -- 44
2019-08-01 17:00:00 27.9 6 Nordeste 24 Este 0 -- -- 41
2019-08-01 16:00:00 26.8 10 Este 26 Este 0 -- -- 42
2019-08-01 15:00:00 26.7 9 Este 26 Este 0 -- -- 45
2019-08-01 14:00:00 25.4 15 Este 30 Este 0 -- -- 47
2019-08-01 13:00:00 23.3 10 Este 27 Nordeste 0 -- -- 54
2019-08-01 12:00:00 21.5 16 Este 30 Este 0 -- -- 61
2019-08-01 11:00:00 19.7 16 Este 33 Este 0 -- -- 67
2019-08-01 10:00:00 17.8 12 Este 23 Este 0 -- -- 76
2019-08-01 09:00:00 14.9 9 Este 24 Este 0 -- -- 87
2019-08-01 08:00:00 14.4 8 Este 23 Este 0 -- -- 88
2019-08-01 07:00:00 13.7 11 Este 24 Este 0 -- -- 88
2019-08-01 06:00:00 13.8 8 Este 26 Este 0 -- -- 86
2019-08-01 05:00:00 14 8 Este 21 Este 0 -- -- 86
2019-08-01 04:00:00 14 5 Este 24 Este 0 -- -- 83
2019-08-01 03:00:00 14.6 5 Este 21 Sudeste 0 -- -- 79
2019-08-01 02:00:00 15.5 8 Este 31 Nordeste 0 -- -- 74
2019-08-01 01:00:00 16.6 11 Este 27 Este 0 -- -- 70
2019-08-01 00:00:00 16.8 5 Este 29 Nordeste 0 -- -- 71
2019-07-31 23:00:00 17.3 3 Este 18 Este 0 -- -- 68
2019-07-31 22:00:00 18.5 2 Este 23 Este 0 -- -- 59
2019-07-31 21:00:00 20.2 7 Este 21 Nordeste 0 -- -- 50
2019-07-31 20:00:00 21.8 9 Este 23 Este 0 -- -- 47
2019-07-31 19:00:00 22.5 6 Este 24 Nordeste 0 -- -- 44
2019-07-31 18:00:00 25.2 11 Nordeste 24 Nordeste 0 -- -- 41
2019-07-31 17:00:00 25.5 10 Este 28 Este 0 -- -- 38
2019-07-31 16:00:00 26.7 12 Este 30 Este 0 -- -- 35
2019-07-31 15:00:00 23.5 14 Este 36 Este 0 -- -- 34
2019-07-31 14:00:00 23.8 22 Este 39 Este 0 -- -- 36
2019-07-31 13:00:00 21.6 14 Este 31 Este 0 -- -- 40
2019-07-31 12:00:00 20.4 15 Este 28 Este 0 -- -- 50
2019-07-31 11:00:00 18.1 15 Este 27 Este 0 -- -- 60
2019-07-31 10:00:00 15 18 Este 26 Este 0 -- -- 72
2019-07-31 09:00:00 11.9 11 Este 20 Nordeste 0 -- -- 87
2019-07-31 08:00:00 11 10 Este 21 Este 0 -- -- 91
2019-07-31 07:00:00 10.5 13 Nordeste 18 Este 0 -- -- 91
2019-07-31 06:00:00 10.4 5 Nordeste 15 Este 0 -- -- 90
2019-07-31 05:00:00 10.8 12 Este 21 Este 0 -- -- 89
2019-07-31 04:00:00 10.7 9 Este 17 Nordeste 0 -- -- 88
2019-07-31 03:00:00 11.4 4 Nordeste 9 Nordeste 0 -- -- 85
2019-07-31 02:00:00 11.9 6 Nordeste 10 Nordeste 0 -- -- 83
2019-07-31 01:00:00 12.5 7 Nordeste 10 Este 0 -- -- 78
2019-07-31 00:00:00 13.4 4 Nordeste 13 Este 0 -- -- 70
2019-07-30 23:00:00 14.7 5 Este 11 Este 0 -- -- 64
2019-07-30 22:00:00 16.4 5 Nordeste 22 Norte 0 -- -- 57
2019-07-30 21:00:00 18.2 10 Nordeste 21 Nordeste 0 -- -- 49
2019-07-30 20:00:00 20.3 8 Nordeste 21 Nordeste 0 -- -- 43
2019-07-30 19:00:00 21.8 4 Norte 24 Nordeste 0 -- -- 41
2019-07-30 18:00:00 23.1 4 Norte 25 Nordeste 0 -- -- 38
2019-07-30 17:00:00 23.2 4 Norte 23 Norte 0 -- -- 38
2019-07-30 16:00:00 22.7 8 Norte 20 Norte 0 -- -- 39
2019-07-30 15:00:00 22.6 3 Norte 15 Norte 0 -- -- 41
2019-07-30 14:00:00 21.2 3 Noroeste 16 Sudeste 0 -- -- 44
2019-07-30 13:00:00 20.2 0 Calma 18 Este 0 -- -- 50
2019-07-30 12:00:00 19.1 0 Calma 10 Este 0 -- -- 54
2019-07-30 11:00:00 17.3 0 Calma 10 Nordeste 0 -- -- 73
2019-07-30 10:00:00 13.5 8 Nordeste 11 Nordeste 0 -- -- 93
2019-07-30 09:00:00 11.9 7 Nordeste 12 Este 0 -- -- 94
2019-07-30 08:00:00 10.3 3 Este 13 Nordeste 0 -- -- 94
2019-07-30 07:00:00 10.4 7 Nordeste 12 Nordeste 0 -- -- 93
2019-07-30 06:00:00 10.4 4 Este 8 Nordeste 0 -- -- 92
2019-07-30 05:00:00 11 5 Nordeste 10 Nordeste 0 -- -- 91
2019-07-30 04:00:00 11.4 7 Nordeste 9 Nordeste 0 -- -- 90
2019-07-30 03:00:00 12 7 Nordeste 9 Nordeste 0 -- -- 88
2019-07-30 02:00:00 12.7 0 Calma 8 Nordeste 0 -- -- 84
2019-07-30 01:00:00 13.9 0 Calma 5 Este 0 -- -- 78
2019-07-30 00:00:00 14.4 2 Sudoeste 5 Sudoeste 0 -- -- 75
2019-07-29 23:00:00 14.7 0 Calma 6 Sur 0 -- -- 73
2019-07-29 22:00:00 15.9 0 Calma 9 Norte 0 -- -- 72
2019-07-29 21:00:00 17.1 3 Oeste 15 Oeste 0 -- -- 64
2019-07-29 20:00:00 18.7 3 Norte 19 Noroeste 0 -- -- 58
2019-07-29 19:00:00 18.6 5 Noroeste 28 Oeste 0 -- -- 58
2019-07-29 18:00:00 20.3 10 Oeste 36 Sudoeste 0 -- -- 50
2019-07-29 17:00:00 21.6 11 Oeste 32 Oeste 0 -- -- 49
2019-07-29 16:00:00 22.1 12 Oeste 35 Oeste 0 -- -- 52
2019-07-29 15:00:00 19.8 9 Sudoeste 29 Oeste 0 -- -- 58
2019-07-29 14:00:00 19.8 8 Oeste 31 Oeste 0 -- -- 56
2019-07-29 13:00:00 18.5 9 Oeste 31 Oeste 0.1 -- -- 67
2019-07-29 12:00:00 17.5 10 Oeste 28 Oeste 0.2 -- -- 77
2019-07-29 11:00:00 18.3 8 Oeste 24 Sudoeste 0 -- -- 78
2019-07-29 10:00:00 17.4 8 Oeste 21 Oeste 0 -- -- 82
2019-07-29 09:00:00 15.6 4 Oeste 9 Oeste 0 -- -- 93
2019-07-29 08:00:00 14.8 3 Oeste 15 Noroeste 0 -- -- 94
2019-07-29 07:00:00 14.9 5 Oeste 12 Oeste 0 -- -- 94
2019-07-29 06:00:00 15.9 4 Oeste 14 Oeste 0 -- -- 94
2019-07-29 05:00:00 16.1 6 Oeste 22 Oeste 0.2 -- -- 94
2019-07-29 04:00:00 16.3 9 Oeste 24 Oeste 0 -- -- 93
2019-07-29 03:00:00 16.3 13 Oeste 27 Oeste 0 -- -- 93
2019-07-29 02:00:00 15.8 9 Oeste 23 Oeste 0.4 -- -- 93
2019-07-29 01:00:00 15.6 5 Oeste 23 Oeste 0.1 -- -- 90
2019-07-29 00:00:00 16.4 6 Oeste 18 Sudoeste 0 -- -- 81
2019-07-28 23:00:00 16.4 8 Oeste 19 Sudoeste 0 -- -- 82
2019-07-28 22:00:00 16.6 6 Oeste 30 Oeste 0 -- -- 81
2019-07-28 21:00:00 18 12 Oeste 35 Oeste 0 -- -- 68
2019-07-28 20:00:00 19.7 12 Oeste 32 Oeste 0 -- -- 52
2019-07-28 19:00:00 21.6 8 Oeste 27 Oeste 0 -- -- 45
2019-07-28 18:00:00 23.5 10 Oeste 32 Oeste 0 -- -- 42
2019-07-28 17:00:00 24.3 9 Oeste 24 Oeste 0 -- -- 40
2019-07-28 16:00:00 24.9 8 Oeste 26 Oeste 0 -- -- 39
2019-07-28 15:00:00 24.2 7 Oeste 21 Oeste 0 -- -- 41
2019-07-28 14:00:00 23.6 6 Oeste 15 Oeste 0 -- -- 44
2019-07-28 13:00:00 22 5 Oeste 12 Oeste 0 -- -- 53
2019-07-28 12:00:00 20.5 2 Sudeste 17 Este 0.1 -- -- 56
2019-07-28 11:00:00 18.2 9 Este 18 Este 0 -- -- 67
2019-07-28 10:00:00 16.1 9 Este 17 Este 0 -- -- 80
2019-07-28 09:00:00 12.9 4 Nordeste 13 Este 0 -- -- 95
2019-07-28 08:00:00 11.1 5 Este 12 Este 0 -- -- 95
2019-07-28 07:00:00 11.2 5 Nordeste 17 Este 0 -- -- 95
2019-07-28 06:00:00 11.6 10 Este 18 Nordeste 0 -- -- 94
2019-07-28 05:00:00 12 8 Este 15 Este 0 -- -- 93
2019-07-28 04:00:00 12.6 6 Nordeste 12 Este 0 -- -- 92
2019-07-28 03:00:00 13 5 Nordeste 10 Nordeste 0 -- -- 90
2019-07-28 02:00:00 13.5 4 Nordeste 11 Este 0 -- -- 89
2019-07-28 01:00:00 14.1 0 Calma 7 Nordeste 0 -- -- 87
2019-07-28 00:00:00 14.7 3 Este 15 Sudeste 0 -- -- 83
2019-07-27 23:00:00 15.1 2 Nordeste 19 Este 0 -- -- 78
2019-07-26 12:00:00 20.5 2 Oeste 10 Sudoeste 0 -- -- 63
2019-07-26 11:00:00 18.8 0 Calma 8 Sudoeste 0 -- -- 80
2019-07-26 10:00:00 16.3 0 Calma 5 Sur 0 -- -- 94
2019-07-26 09:00:00 15.4 0 Calma 8 Nordeste 0 -- -- 94
2019-07-26 08:00:00 15.5 0 Calma 3 Oeste 0 -- -- 93
2019-07-26 07:00:00 15.5 0 Calma 3 Oeste 0 -- -- 93
2019-07-26 06:00:00 15.6 0 Calma 4 Sur 0 -- -- 93
2019-07-26 05:00:00 15.5 0 Calma 0 Calma 0 -- -- 93
2019-07-26 04:00:00 16.1 0 Calma 2 Oeste 0 -- -- 93
2019-07-26 03:00:00 16.2 0 Calma 3 Oeste 0 -- -- 93
2019-07-26 02:00:00 16.3 0 Calma 5 Oeste 0.4 -- -- 92
2019-07-26 01:00:00 16.4 2 Oeste 7 Oeste 0 -- -- 92
2019-07-26 00:00:00 16.8 3 Oeste 10 Oeste 0 -- -- 90